createdAt,value
2019-05-18T00:00:34.804Z,12.27
2019-05-18T00:03:16.485Z,12.23
2019-05-18T00:38:01.459Z,12.10
2019-05-18T00:40:50.688Z,11.27
2019-05-18T00:43:40.295Z,11.96
2019-05-18T00:46:12.305Z,11.90
2019-05-18T00:49:02.019Z,11.92
2019-05-18T00:51:51.323Z,11.94
2019-05-18T00:54:40.885Z,11.95
2019-05-18T00:57:31.031Z,11.94
2019-05-18T01:00:01.337Z,11.92
2019-05-18T01:02:34.934Z,11.89
2019-05-18T01:05:24.162Z,11.87
2019-05-18T01:08:13.710Z,11.87
2019-05-18T01:11:02.962Z,11.90
2019-05-18T01:13:52.247Z,11.88
2019-05-18T01:16:41.767Z,11.92
2019-05-18T01:19:49.886Z,11.93
2019-05-18T01:22:20.112Z,11.94
2019-05-18T01:25:57.613Z,11.95
2019-05-18T01:28:50.485Z,11.99
2019-05-18T01:31:23.041Z,12.02
2019-05-18T01:34:12.287Z,12.00
2019-05-18T01:39:50.711Z,12.00
2019-05-18T01:42:39.922Z,12.02
2019-05-18T01:45:49.881Z,12.01
2019-05-18T01:48:39.132Z,12.04
2019-05-18T01:51:28.637Z,11.96
2019-05-18T01:54:17.865Z,11.92
2019-05-18T02:00:14.308Z,11.93
2019-05-18T02:02:44.516Z,11.88
2019-05-18T02:05:34.058Z,11.87
2019-05-18T02:08:42.539Z,11.91
2019-05-18T02:11:12.775Z,11.83
2019-05-18T02:14:02.175Z,11.79
2019-05-18T02:17:14.580Z,11.75
2019-05-18T02:20:04.282Z,11.71
2019-05-18T02:22:34.557Z,11.81
2019-05-18T02:25:23.895Z,11.73
2019-05-18T02:28:13.130Z,11.69
2019-05-18T02:31:02.698Z,11.64
2019-05-18T02:33:51.923Z,11.66
2019-05-18T02:36:41.557Z,11.60
2019-05-18T02:39:11.886Z,11.53
2019-05-18T02:42:01.501Z,11.51
2019-05-18T02:44:31.957Z,11.50
2019-05-18T02:47:21.574Z,11.46
2019-05-18T02:52:41.048Z,11.45
2019-05-18T02:55:30.363Z,11.42
2019-05-18T02:58:19.714Z,11.44
2019-05-18T03:01:01.237Z,11.37
2019-05-18T03:03:31.860Z,11.35
2019-05-18T03:06:21.139Z,11.27
2019-05-18T03:08:53.170Z,11.26
2019-05-18T03:12:06.632Z,11.27
2019-05-18T03:14:55.984Z,11.23
2019-05-18T03:17:26.196Z,11.24
2019-05-18T03:19:56.744Z,11.20
2019-05-18T03:22:27.022Z,11.15
2019-05-18T03:25:16.194Z,11.10
2019-05-18T03:27:46.506Z,11.04
2019-05-18T03:30:18.141Z,10.97
2019-05-18T03:32:48.427Z,10.95
2019-05-18T03:35:37.984Z,10.87
2019-05-18T03:38:27.258Z,10.86
2019-05-18T03:47:11.011Z,10.77
2019-05-18T03:49:41.580Z,10.72
2019-05-18T03:52:11.898Z,10.69
2019-05-18T03:55:01.520Z,10.57
2019-05-18T03:57:50.803Z,10.59
2019-05-18T04:00:24.015Z,10.59
2019-05-18T04:03:05.559Z,10.62
2019-05-18T04:08:33.991Z,10.67
2019-05-18T04:11:15.505Z,10.69
2019-05-18T04:13:57.204Z,10.68
2019-05-18T04:16:39.286Z,10.69
2019-05-18T04:19:21.500Z,10.67
2019-05-18T04:22:03.250Z,10.58
2019-05-18T04:24:45.007Z,10.54
2019-05-18T04:27:15.930Z,10.47
2019-05-18T04:30:05.601Z,10.41
2019-05-18T04:32:55.154Z,10.50
2019-05-18T04:35:26.485Z,10.55
2019-05-18T04:37:56.803Z,10.53
2019-05-18T04:40:46.075Z,10.45
2019-05-18T04:43:16.432Z,10.48
2019-05-18T04:45:48.826Z,10.43
2019-05-18T04:48:38.195Z,10.43
2019-05-18T04:51:08.593Z,10.42
2019-05-18T04:53:58.457Z,10.41
2019-05-18T04:56:47.707Z,9.88
2019-05-18T04:59:19.177Z,10.46
2019-05-18T05:02:08.498Z,10.51
2019-05-18T05:04:57.862Z,10.53
2019-05-18T05:07:28.150Z,10.58
2019-05-18T05:10:17.436Z,10.60
2019-05-18T05:13:06.668Z,10.64
2019-05-18T05:15:56.257Z,10.70
2019-05-18T05:18:47.656Z,10.73
2019-05-18T05:21:17.892Z,10.80
2019-05-18T05:30:47.878Z,11.05
2019-05-18T05:33:37.269Z,11.19
2019-05-18T05:39:41.035Z,11.49
2019-05-18T05:42:11.384Z,11.59
2019-05-18T05:45:00.679Z,11.65
2019-05-18T05:47:30.889Z,11.67
2019-05-18T05:50:34.703Z,11.75
2019-05-18T05:52:52.591Z,11.90
2019-05-18T05:55:22.818Z,12.11
2019-05-18T05:57:56.154Z,12.24
2019-05-18T06:00:26.801Z,12.37
2019-05-18T06:02:57.011Z,12.55
2019-05-18T06:05:27.306Z,12.72
2019-05-18T06:07:57.495Z,12.87
2019-05-18T06:10:28.180Z,13.00
2019-05-18T06:12:58.448Z,13.10
2019-05-18T06:15:30.817Z,13.18
2019-05-18T06:18:19.950Z,13.30
2019-05-18T06:20:51.757Z,13.42
2019-05-18T06:23:23.802Z,13.56
2019-05-18T06:25:54.722Z,13.70
2019-05-18T06:28:43.981Z,13.77
2019-05-18T06:31:33.790Z,13.89
2019-05-18T06:34:06.987Z,13.99
2019-05-18T06:40:10.107Z,14.30
2019-05-18T06:43:00.642Z,13.94
2019-05-18T06:45:30.951Z,14.54
2019-05-18T06:48:02.558Z,14.67
2019-05-18T06:50:35.901Z,14.81
2019-05-18T06:53:25.460Z,14.84
2019-05-18T06:56:14.692Z,14.86
2019-05-18T06:59:03.942Z,15.17
2019-05-18T07:01:54.322Z,15.28
2019-05-18T07:04:44.854Z,15.25
2019-05-18T07:07:34.152Z,15.32
2019-05-18T07:10:23.717Z,15.45
2019-05-18T07:16:24.451Z,15.85
2019-05-18T07:19:03.046Z,16.03
2019-05-18T07:22:12.741Z,16.28
2019-05-18T07:25:01.996Z,16.45
2019-05-18T07:27:33.496Z,16.45
2019-05-18T07:30:09.513Z,16.53
2019-05-18T07:32:58.884Z,16.40
2019-05-18T07:35:29.166Z,16.34
2019-05-18T07:38:03.568Z,16.33
2019-05-18T07:43:15.064Z,16.79
2019-05-18T07:45:45.374Z,17.29
2019-05-18T07:48:15.610Z,17.40
2019-05-18T07:50:48.810Z,17.50
2019-05-18T07:53:20.287Z,17.78
2019-05-18T07:56:14.084Z,17.96
2019-05-18T07:59:03.354Z,18.15
2019-05-18T08:04:49.373Z,17.68
2019-05-18T08:07:56.300Z,17.99
2019-05-18T08:10:11.221Z,18.13
2019-05-18T08:13:06.760Z,18.41
2019-05-18T08:15:56.323Z,18.63
2019-05-18T08:24:45.161Z,17.62
2019-05-18T08:27:15.428Z,17.42
2019-05-18T08:29:47.305Z,17.81
2019-05-18T08:32:18.933Z,18.74
2019-05-18T08:35:08.389Z,18.89
2019-05-18T08:37:57.706Z,19.18
2019-05-18T08:40:31.062Z,20.11
2019-05-18T08:48:39.001Z,21.52
2019-05-18T08:51:28.310Z,20.94
2019-05-18T09:00:30.849Z,22.29
2019-05-18T09:03:02.392Z,23.25
2019-05-18T09:05:51.956Z,23.86
2019-05-18T09:08:41.210Z,23.51
2019-05-18T09:11:11.455Z,23.56
2019-05-18T09:14:00.967Z,22.62
2019-05-18T09:17:10.576Z,23.12
2019-05-18T09:20:02.986Z,22.84
2019-05-18T09:22:33.279Z,24.60
2019-05-18T09:25:26.465Z,24.09
2019-05-18T09:27:56.929Z,24.02
2019-05-18T09:30:27.315Z,22.84
2019-05-18T09:36:07.872Z,23.63
2019-05-18T09:39:16.043Z,23.91
2019-05-18T09:42:05.766Z,23.58
2019-05-18T09:44:57.799Z,23.43
2019-05-18T09:47:49.830Z,23.47
2019-05-18T09:50:44.979Z,23.83
2019-05-18T09:53:35.439Z,25.00
2019-05-18T10:00:15.717Z,26.20
2019-05-18T10:03:04.906Z,26.13
2019-05-18T10:05:36.799Z,24.86
2019-05-18T10:14:41.160Z,25.45
2019-05-18T10:17:11.350Z,25.58
2019-05-18T10:22:59.098Z,25.02
2019-05-18T10:28:32.200Z,25.02
2019-05-18T10:31:03.912Z,24.89
2019-05-18T10:33:34.234Z,25.16
2019-05-18T10:36:24.047Z,25.09
2019-05-18T10:38:54.353Z,24.19
2019-05-18T10:42:35.969Z,23.92
2019-05-18T10:44:40.151Z,24.17
2019-05-18T10:47:29.503Z,22.98
2019-05-18T10:50:18.794Z,22.71
2019-05-18T10:52:49.100Z,22.86
2019-05-18T10:55:38.666Z,23.22
2019-05-18T10:58:48.602Z,23.74
2019-05-18T11:01:39.199Z,23.98
2019-05-18T11:04:36.026Z,24.01
2019-05-18T11:07:06.734Z,23.61
2019-05-18T11:09:56.003Z,22.99
2019-05-18T11:12:29.071Z,23.23
2019-05-18T11:14:59.888Z,23.77
2019-05-18T11:17:47.781Z,23.73
2019-05-18T11:20:20.445Z,23.34
2019-05-18T11:23:09.981Z,23.25
2019-05-18T11:25:59.373Z,23.70
2019-05-18T11:29:09.875Z,24.22
2019-05-18T11:32:01.883Z,24.54
2019-05-18T11:34:32.345Z,24.59
2019-05-18T11:37:21.756Z,24.77
2019-05-18T11:39:55.315Z,25.44
2019-05-18T11:42:27.731Z,26.65
2019-05-18T11:45:17.791Z,26.56
2019-05-18T12:03:00.980Z,24.36
2019-05-18T12:06:23.093Z,24.37
2019-05-18T12:08:43.970Z,23.93
2019-05-18T12:14:24.161Z,23.77
2019-05-18T12:17:16.319Z,24.02
2019-05-18T12:20:20.195Z,23.93
2019-05-18T12:22:57.096Z,23.75
2019-05-18T12:26:05.287Z,23.57
2019-05-18T12:28:57.252Z,23.49
2019-05-18T12:31:49.223Z,24.27
2019-05-18T12:34:52.344Z,24.54
2019-05-18T12:37:29.827Z,24.84
2019-05-18T12:40:21.334Z,25.18
2019-05-18T12:43:30.927Z,25.06
2019-05-18T12:52:22.741Z,25.86
2019-05-18T12:55:12.314Z,26.57
2019-05-18T12:58:01.944Z,25.52
2019-05-18T13:00:51.259Z,24.87
2019-05-18T13:03:43.860Z,24.45
2019-05-18T13:06:26.104Z,24.53
2019-05-18T15:18:47.835Z,13.28
2019-05-18T15:27:45.834Z,13.57
2019-05-18T15:34:23.065Z,13.53
2019-05-18T15:37:30.402Z,13.60
2019-05-18T15:43:43.951Z,13.53
2019-05-18T15:49:32.385Z,13.11
2019-05-18T15:55:04.847Z,13.91
2019-05-18T15:57:36.310Z,14.14
2019-05-18T16:00:24.458Z,14.23
2019-05-18T16:03:14.568Z,14.35
2019-05-18T16:05:52.939Z,14.52
2019-05-18T16:08:31.525Z,14.68
2019-05-18T16:11:05.599Z,14.76
2019-05-18T16:13:36.256Z,14.78
2019-05-18T16:16:19.813Z,14.80
2019-05-18T16:18:50.570Z,14.77
2019-05-18T16:21:50.372Z,14.72
2019-05-18T16:24:31.440Z,14.67
2019-05-18T16:27:53.052Z,14.65
2019-05-18T16:30:45.639Z,14.59
2019-05-18T16:33:59.790Z,14.60
2019-05-18T16:37:39.091Z,14.58
2019-05-18T16:39:51.720Z,14.58
2019-05-18T16:46:08.717Z,14.50
2019-05-18T16:49:07.057Z,14.65
2019-05-18T16:52:03.821Z,14.71
2019-05-18T16:54:39.571Z,14.81
2019-05-18T16:57:18.296Z,14.90
2019-05-18T17:03:44.239Z,14.92
2019-05-18T17:06:22.598Z,14.95
2019-05-18T17:09:28.767Z,14.97
2019-05-18T17:12:01.813Z,14.95
2019-05-18T17:15:25.141Z,14.95
2019-05-18T17:18:02.811Z,14.92
2019-05-18T17:21:40.877Z,14.84
2019-05-18T17:24:11.593Z,14.85
2019-05-18T17:26:52.280Z,14.85
2019-05-18T17:29:17.632Z,14.83
2019-05-18T17:31:51.406Z,14.75
2019-05-18T17:34:22.111Z,14.69
2019-05-18T17:36:52.856Z,14.65
2019-05-18T17:39:23.668Z,14.57
2019-05-18T17:41:54.807Z,14.56
2019-05-18T17:44:25.986Z,14.53
2019-05-18T17:46:56.983Z,14.49
2019-05-18T17:49:28.019Z,14.44
2019-05-18T17:52:00.385Z,14.37
2019-05-18T17:54:31.923Z,14.35
2019-05-18T17:57:08.433Z,14.30
2019-05-18T17:59:37.031Z,14.27
2019-05-18T18:02:07.975Z,14.22
2019-05-18T18:04:45.103Z,14.20
2019-05-18T18:07:16.090Z,14.20
2019-05-18T18:09:50.481Z,14.17
2019-05-18T18:12:21.264Z,14.12
2019-05-18T18:14:52.102Z,14.18
2019-05-18T18:17:22.887Z,14.11
2019-05-18T18:19:54.215Z,14.08
2019-05-18T18:22:25.362Z,13.98
2019-05-18T18:24:58.661Z,13.91
2019-05-18T18:27:30.417Z,13.88
2019-05-18T18:30:03.959Z,13.83
2019-05-18T18:32:35.177Z,13.80
2019-05-18T18:35:08.737Z,13.71
2019-05-18T18:37:39.660Z,13.70
2019-05-18T18:40:10.708Z,13.73
2019-05-18T18:42:41.385Z,13.70
2019-05-18T18:45:13.533Z,13.70
2019-05-18T18:47:44.619Z,13.69
2019-05-18T18:50:18.273Z,13.68
2019-05-18T18:52:50.728Z,13.69
2019-05-18T18:55:22.570Z,13.67
2019-05-18T18:57:56.480Z,13.64
2019-05-18T19:00:28.659Z,13.61
2019-05-18T19:03:00.796Z,13.57
2019-05-18T19:05:31.677Z,13.51
2019-05-18T19:08:04.195Z,13.49
2019-05-18T19:10:38.110Z,13.43
2019-05-18T19:13:10.048Z,13.35
2019-05-18T19:15:41.307Z,13.27
2019-05-18T19:18:12.552Z,13.31
2019-05-18T19:20:43.583Z,13.28
2019-05-18T19:23:14.519Z,13.26
2019-05-18T19:25:45.657Z,13.25
2019-05-18T19:28:16.552Z,13.23
2019-05-18T19:30:47.335Z,13.21
2019-05-18T19:33:18.163Z,13.16
2019-05-18T19:35:50.439Z,13.08
2019-05-18T19:38:21.334Z,13.09
2019-05-18T19:40:53.425Z,13.09
2019-05-18T19:43:24.184Z,12.93
2019-05-18T19:45:55.010Z,12.87
2019-05-18T19:48:25.732Z,12.82
2019-05-18T19:50:56.533Z,12.84
2019-05-18T19:53:31.279Z,12.91
2019-05-18T19:56:03.731Z,12.92
2019-05-18T19:58:34.464Z,12.90
2019-05-18T20:01:05.808Z,12.90
2019-05-18T20:03:36.787Z,12.86
2019-05-18T20:06:10.266Z,12.88
2019-05-18T20:08:41.323Z,12.86
2019-05-18T20:11:13.125Z,12.81
2019-05-18T20:13:44.904Z,12.76
2019-05-18T20:16:15.607Z,12.77
2019-05-18T20:18:48.070Z,12.80
2019-05-18T20:21:19.282Z,12.77
2019-05-18T20:23:50.621Z,12.83
2019-05-18T20:26:23.223Z,12.92
2019-05-18T20:28:56.651Z,12.88
2019-05-18T20:31:27.117Z,12.93
2019-05-18T20:33:58.224Z,12.94
2019-05-18T20:36:29.085Z,12.94
2019-05-18T20:39:00.254Z,12.88
2019-05-18T20:41:36.263Z,12.76
2019-05-18T20:44:10.453Z,12.71
2019-05-18T20:46:52.295Z,12.61
2019-05-18T20:49:23.091Z,12.53
2019-05-18T20:51:53.940Z,12.41
2019-05-18T20:54:25.644Z,12.40
2019-05-18T20:56:58.366Z,12.33
2019-05-18T20:59:29.661Z,12.23
2019-05-18T21:02:01.692Z,12.16
2019-05-18T21:04:32.608Z,12.23
2019-05-18T21:07:03.615Z,12.22
2019-05-18T21:09:35.191Z,12.18
2019-05-18T21:12:07.307Z,12.10
2019-05-18T21:14:39.833Z,12.06
2019-05-18T21:17:11.036Z,12.07
2019-05-18T21:19:42.362Z,11.99
2019-05-18T21:22:13.135Z,11.97
2019-05-18T21:24:44.964Z,11.85
2019-05-18T21:27:16.088Z,11.79
2019-05-18T21:29:47.126Z,11.73
2019-05-18T21:32:19.329Z,11.78
2019-05-18T21:34:50.177Z,11.76
2019-05-18T21:37:22.479Z,11.75
2019-05-18T21:39:53.272Z,11.79
2019-05-18T21:42:26.659Z,11.74
2019-05-18T21:45:07.802Z,11.78
2019-05-18T21:47:38.639Z,11.86
2019-05-18T21:50:10.276Z,11.93
2019-05-18T21:52:42.130Z,11.96
2019-05-18T21:55:13.269Z,11.96
2019-05-18T21:57:44.297Z,11.89
2019-05-18T22:00:18.632Z,11.88
2019-05-18T22:02:49.800Z,11.89
2019-05-18T22:05:20.767Z,11.87
2019-05-18T22:07:51.504Z,11.96
2019-05-18T22:10:26.175Z,11.99
2019-05-18T22:12:57.458Z,12.04
2019-05-18T22:15:28.203Z,12.07
2019-05-18T22:18:06.540Z,12.09
2019-05-18T22:20:43.574Z,12.16
2019-05-18T22:23:11.438Z,12.05
2019-05-18T22:25:42.987Z,12.00
2019-05-18T22:28:13.846Z,11.97
2019-05-18T22:30:47.003Z,11.92
2019-05-18T22:33:18.510Z,11.93
2019-05-18T22:35:49.201Z,11.96
2019-05-18T22:38:20.357Z,11.94
2019-05-18T22:40:51.347Z,11.96
2019-05-18T22:43:22.096Z,11.94
2019-05-18T22:45:52.783Z,11.91
2019-05-18T22:48:23.625Z,11.90
2019-05-18T22:50:55.891Z,11.89
2019-05-18T22:53:26.629Z,11.88
2019-05-18T22:55:58.898Z,11.89
2019-05-18T22:58:29.807Z,11.89
2019-05-18T23:01:00.660Z,11.91
2019-05-18T23:03:31.815Z,11.88
2019-05-18T23:06:02.910Z,11.87
2019-05-18T23:08:34.857Z,11.88
2019-05-18T23:11:06.061Z,11.87
2019-05-18T23:13:37.017Z,11.84
2019-05-18T23:16:08.823Z,11.85
2019-05-18T23:18:54.467Z,11.85
2019-05-18T23:21:13.745Z,11.85
2019-05-18T23:23:44.995Z,11.83
2019-05-18T23:26:16.425Z,11.82
2019-05-18T23:28:48.279Z,11.86
2019-05-18T23:31:21.491Z,11.86
2019-05-18T23:33:53.731Z,11.96
2019-05-18T23:36:26.394Z,12.04
2019-05-18T23:38:58.841Z,11.97
2019-05-18T23:41:30.667Z,11.95
2019-05-18T23:44:02.166Z,11.96
2019-05-18T23:46:35.427Z,11.96
2019-05-18T23:49:10.907Z,11.97
2019-05-18T23:51:40.889Z,11.93
2019-05-18T23:54:11.868Z,11.94
2019-05-18T23:56:42.723Z,11.93
2019-05-18T23:59:13.608Z,11.92
